Flugplatz Eichstätt

Für EDPE sind keine METAR/TAF Berichte vorhanden.
Es werden die Flugwettermeldungen vom Flugplatz Neuburg Airport in 18 km Entfernung angezeigt.

Bericht für ETSN

vom 31.05. um 08:20 UTC

Wind 3 kt aus 80°

Sichtweite 10 km oder mehr

gering bewölkt in 4400 ft

aufgelockert bewölkt in 15000 ft

aufgebrochene Bewölkung in 21000 ft

Temperatur 16.0°C

Taupunkt 5.0°C

Luftfeuchtigkeit 48%

Luftdruck 1020 hPa

ETSN 310820Z 08003KT 9999 FEW044 SCT150 BKN210 16/05 Q1020 BLU+
Keine Prognose (TAF) verfügbar.
Impressum